sensor_id;sensor_type;location;lat;lon;timestamp;pressure;altitude;pressure_sealevel;temperature;humidity
32083;BME280;18597;48.328;7.932;2023-04-03T00:00:29;100205.63;;;5.83;100.00
32083;BME280;18597;48.328;7.932;2023-04-03T00:02:56;100203.66;;;5.87;100.00
32083;BME280;18597;48.328;7.932;2023-04-03T00:05:21;100202.59;;;5.89;100.00
32083;BME280;18597;48.328;7.932;2023-04-03T00:07:47;100201.00;;;5.87;100.00
32083;BME280;18597;48.328;7.932;2023-04-03T00:10:15;100209.38;;;5.79;100.00
32083;BME280;18597;48.328;7.932;2023-04-03T00:12:41;100198.19;;;5.90;100.00
32083;BME280;18597;48.328;7.932;2023-04-03T00:15:08;100200.59;;;5.78;100.00
32083;BME280;18597;48.328;7.932;2023-04-03T00:17:35;100211.00;;;5.81;100.00
32083;BME280;18597;48.328;7.932;2023-04-03T00:20:01;100204.41;;;5.89;100.00
32083;BME280;18597;48.328;7.932;2023-04-03T00:22:27;100207.69;;;5.78;100.00
32083;BME280;18597;48.328;7.932;2023-04-03T00:24:54;100217.00;;;5.69;100.00
32083;BME280;18597;48.328;7.932;2023-04-03T00:27:20;100222.66;;;5.63;100.00
32083;BME280;18597;48.328;7.932;2023-04-03T00:29:46;100226.25;;;5.62;100.00
32083;BME280;18597;48.328;7.932;2023-04-03T00:32:12;100232.66;;;5.58;100.00
32083;BME280;18597;48.328;7.932;2023-04-03T00:34:38;100224.19;;;5.51;100.00
32083;BME280;18597;48.328;7.932;2023-04-03T00:37:04;100224.78;;;5.56;100.00
32083;BME280;18597;48.328;7.932;2023-04-03T00:39:30;100219.47;;;5.56;100.00
32083;BME280;18597;48.328;7.932;2023-04-03T00:41:56;100219.66;;;5.53;100.00
32083;BME280;18597;48.328;7.932;2023-04-03T00:47:20;100216.31;;;5.50;100.00
32083;BME280;18597;48.328;7.932;2023-04-03T00:49:46;100219.91;;;5.49;100.00
32083;BME280;18597;48.328;7.932;2023-04-03T00:52:16;100223.59;;;5.46;100.00
32083;BME280;18597;48.328;7.932;2023-04-03T00:54:44;100221.88;;;5.45;100.00
32083;BME280;18597;48.328;7.932;2023-04-03T00:57:12;100220.25;;;5.43;100.00
32083;BME280;18597;48.328;7.932;2023-04-03T00:59:44;100224.59;;;5.44;100.00
32083;BME280;18597;48.328;7.932;2023-04-03T01:02:12;100224.44;;;5.47;100.00
32083;BME280;18597;48.328;7.932;2023-04-03T01:04:41;100211.53;;;5.41;100.00
32083;BME280;18597;48.328;7.932;2023-04-03T01:07:17;100227.00;;;5.33;100.00
32083;BME280;18597;48.328;7.932;2023-04-03T01:09:45;100225.63;;;5.41;100.00
32083;BME280;18597;48.328;7.932;2023-04-03T01:12:24;100227.00;;;5.33;100.00
32083;BME280;18597;48.328;7.932;2023-04-03T01:14:55;100231.63;;;5.29;100.00
32083;BME280;18597;48.328;7.932;2023-04-03T01:17:38;100228.56;;;5.37;100.00
32083;BME280;18597;48.328;7.932;2023-04-03T01:20:40;100228.09;;;5.28;100.00
32083;BME280;18597;48.328;7.932;2023-04-03T01:25:54;100224.09;;;5.37;100.00
32083;BME280;18597;48.328;7.932;2023-04-03T01:28:26;100220.25;;;5.43;100.00
32083;BME280;18597;48.328;7.932;2023-04-03T01:31:55;100217.16;;;5.35;100.00
32083;BME280;18597;48.328;7.932;2023-04-03T01:34:08;100224.88;;;5.39;100.00
32083;BME280;18597;48.328;7.932;2023-04-03T01:36:34;100223.25;;;5.37;100.00
32083;BME280;18597;48.328;7.932;2023-04-03T01:39:01;100213.25;;;5.42;100.00
32083;BME280;18597;48.328;7.932;2023-04-03T01:41:28;100217.06;;;5.36;100.00
32083;BME280;18597;48.328;7.932;2023-04-03T01:43:53;100215.63;;;5.31;100.00
32083;BME280;18597;48.328;7.932;2023-04-03T01:46:20;100220.50;;;5.22;100.00
32083;BME280;18597;48.328;7.932;2023-04-03T01:48:47;100223.56;;;5.15;100.00
32083;BME280;18597;48.328;7.932;2023-04-03T01:51:14;100213.50;;;5.37;100.00
32083;BME280;18597;48.328;7.932;2023-04-03T01:53:40;100224.84;;;5.23;100.00
32083;BME280;18597;48.328;7.932;2023-04-03T01:56:06;100217.75;;;5.24;100.00
32083;BME280;18597;48.328;7.932;2023-04-03T01:58:32;100213.81;;;5.15;100.00
32083;BME280;18597;48.328;7.932;2023-04-03T02:00:57;100222.09;;;5.25;100.00
32083;BME280;18597;48.328;7.932;2023-04-03T02:03:23;100213.06;;;5.29;100.00
32083;BME280;18597;48.328;7.932;2023-04-03T02:05:49;100214.19;;;5.41;100.00
32083;BME280;18597;48.328;7.932;2023-04-03T02:08:15;100218.63;;;5.56;100.00
32083;BME280;18597;48.328;7.932;2023-04-03T02:10:46;100217.09;;;5.52;100.00
32083;BME280;18597;48.328;7.932;2023-04-03T02:13:12;100219.66;;;5.38;100.00
32083;BME280;18597;48.328;7.932;2023-04-03T02:15:39;100212.13;;;5.30;100.00
32083;BME280;18597;48.328;7.932;2023-04-03T02:18:05;100204.59;;;5.22;100.00
32083;BME280;18597;48.328;7.932;2023-04-03T02:20:31;100210.84;;;5.21;100.00
32083;BME280;18597;48.328;7.932;2023-04-03T02:22:59;100217.91;;;5.21;100.00
32083;BME280;18597;48.328;7.932;2023-04-03T02:25:26;100211.09;;;5.33;100.00
32083;BME280;18597;48.328;7.932;2023-04-03T02:27:52;100213.97;;;5.28;100.00
32083;BME280;18597;48.328;7.932;2023-04-03T02:30:17;100210.66;;;5.24;100.00
32083;BME280;18597;48.328;7.932;2023-04-03T02:32:44;100220.59;;;5.37;100.00
32083;BME280;18597;48.328;7.932;2023-04-03T02:35:11;100212.72;;;5.51;100.00
32083;BME280;18597;48.328;7.932;2023-04-03T02:37:37;100216.31;;;5.50;100.00
32083;BME280;18597;48.328;7.932;2023-04-03T02:40:05;100215.44;;;5.34;100.00
32083;BME280;18597;48.328;7.932;2023-04-03T02:42:31;100211.28;;;5.29;100.00
32083;BME280;18597;48.328;7.932;2023-04-03T02:44:57;100209.53;;;5.28;100.00
32083;BME280;18597;48.328;7.932;2023-04-03T02:47:27;100208.34;;;5.34;100.00
32083;BME280;18597;48.328;7.932;2023-04-03T02:49:53;100204.66;;;5.21;100.00
32083;BME280;18597;48.328;7.932;2023-04-03T02:52:19;100202.00;;;5.21;100.00
32083;BME280;18597;48.328;7.932;2023-04-03T02:54:45;100214.50;;;5.19;100.00
32083;BME280;18597;48.328;7.932;2023-04-03T02:57:11;100205.81;;;5.33;100.00
32083;BME280;18597;48.328;7.932;2023-04-03T02:59:37;100205.38;;;5.24;100.00
32083;BME280;18597;48.328;7.932;2023-04-03T03:02:07;100206.31;;;5.23;100.00
32083;BME280;18597;48.328;7.932;2023-04-03T03:04:34;100214.78;;;5.46;100.00
32083;BME280;18597;48.328;7.932;2023-04-03T03:07:00;100208.13;;;5.39;100.00
32083;BME280;18597;48.328;7.932;2023-04-03T03:09:26;100219.03;;;5.33;100.00
32083;BME280;18597;48.328;7.932;2023-04-03T03:11:52;100212.03;;;5.32;100.00
32083;BME280;18597;48.328;7.932;2023-04-03T03:14:18;100207.84;;;5.27;100.00
32083;BME280;18597;48.328;7.932;2023-04-03T03:16:44;100212.97;;;5.31;100.00
32083;BME280;18597;48.328;7.932;2023-04-03T03:19:10;100213.50;;;5.37;100.00
32083;BME280;18597;48.328;7.932;2023-04-03T03:21:36;100214.50;;;5.35;100.00
32083;BME280;18597;48.328;7.932;2023-04-03T03:24:02;100220.34;;;5.41;100.00
32083;BME280;18597;48.328;7.932;2023-04-03T03:26:28;100213.41;;;5.39;100.00
32083;BME280;18597;48.328;7.932;2023-04-03T03:28:54;100215.38;;;5.51;100.00
32083;BME280;18597;48.328;7.932;2023-04-03T03:31:20;100211.19;;;5.47;100.00
32083;BME280;18597;48.328;7.932;2023-04-03T03:33:46;100218.28;;;5.46;100.00
32083;BME280;18597;48.328;7.932;2023-04-03T03:36:12;100214.41;;;5.36;100.00
32083;BME280;18597;48.328;7.932;2023-04-03T03:38:38;100216.50;;;5.31;100.00
32083;BME280;18597;48.328;7.932;2023-04-03T03:41:04;100209.91;;;5.38;100.00
32083;BME280;18597;48.328;7.932;2023-04-03T03:43:30;100212.81;;;5.34;100.00
32083;BME280;18597;48.328;7.932;2023-04-03T03:45:56;100205.88;;;5.31;100.00
32083;BME280;18597;48.328;7.932;2023-04-03T03:48:22;100204.25;;;5.28;100.00
32083;BME280;18597;48.328;7.932;2023-04-03T03:50:48;100201.69;;;5.27;100.00
32083;BME280;18597;48.328;7.932;2023-04-03T03:53:15;100209.91;;;5.38;100.00
32083;BME280;18597;48.328;7.932;2023-04-03T03:55:41;100206.03;;;5.28;100.00
32083;BME280;18597;48.328;7.932;2023-04-03T03:58:07;100213.31;;;5.24;100.00
32083;BME280;18597;48.328;7.932;2023-04-03T04:00:33;100210.34;;;5.31;100.00
32083;BME280;18597;48.328;7.932;2023-04-03T04:02:59;100216.19;;;5.20;100.00
32083;BME280;18597;48.328;7.932;2023-04-03T04:05:26;100206.66;;;5.33;100.00
32083;BME280;18597;48.328;7.932;2023-04-03T04:07:52;100210.66;;;5.24;100.00
32083;BME280;18597;48.328;7.932;2023-04-03T04:10:18;100210.22;;;5.16;100.00
32083;BME280;18597;48.328;7.932;2023-04-03T04:12:44;100208.41;;;5.01;100.00
32083;BME280;18597;48.328;7.932;2023-04-03T04:15:10;100209.91;;;5.22;100.00
32083;BME280;18597;48.328;7.932;2023-04-03T04:17:36;100206.50;;;5.03;100.00
32083;BME280;18597;48.328;7.932;2023-04-03T04:20:03;100207.88;;;4.94;100.00
32083;BME280;18597;48.328;7.932;2023-04-03T04:22:30;100209.31;;;4.84;100.00
32083;BME280;18597;48.328;7.932;2023-04-03T04:24:56;100212.84;;;4.83;100.00
32083;BME280;18597;48.328;7.932;2023-04-03T04:27:22;100216.38;;;4.84;100.00
32083;BME280;18597;48.328;7.932;2023-04-03T04:29:48;100217.28;;;4.83;100.00
32083;BME280;18597;48.328;7.932;2023-04-03T04:32:14;100218.63;;;4.74;100.00
32083;BME280;18597;48.328;7.932;2023-04-03T04:34:40;100221.69;;;4.66;100.00
32083;BME280;18597;48.328;7.932;2023-04-03T04:37:05;100219.69;;;4.54;100.00
32083;BME280;18597;48.328;7.932;2023-04-03T04:39:31;100216.25;;;4.69;100.00
32083;BME280;18597;48.328;7.932;2023-04-03T04:41:57;100224.34;;;4.66;100.00
32083;BME280;18597;48.328;7.932;2023-04-03T04:44:23;100227.75;;;4.51;100.00
32083;BME280;18597;48.328;7.932;2023-04-03T04:46:49;100218.69;;;4.39;100.00
32083;BME280;18597;48.328;7.932;2023-04-03T04:49:14;100226.19;;;4.30;100.00
32083;BME280;18597;48.328;7.932;2023-04-03T04:51:40;100232.59;;;4.26;100.00
32083;BME280;18597;48.328;7.932;2023-04-03T04:54:06;100231.97;;;4.38;100.00
32083;BME280;18597;48.328;7.932;2023-04-03T04:56:32;100229.19;;;4.41;100.00
32083;BME280;18597;48.328;7.932;2023-04-03T04:58:58;100232.91;;;4.37;100.00
32083;BME280;18597;48.328;7.932;2023-04-03T05:01:23;100233.16;;;4.32;100.00
32083;BME280;18597;48.328;7.932;2023-04-03T05:03:49;100230.25;;;4.37;100.00
32083;BME280;18597;48.328;7.932;2023-04-03T05:06:15;100230.81;;;4.26;100.00
32083;BME280;18597;48.328;7.932;2023-04-03T05:08:41;100237.72;;;4.29;100.00
32083;BME280;18597;48.328;7.932;2023-04-03T05:11:07;100232.13;;;4.17;100.00
32083;BME280;18597;48.328;7.932;2023-04-03T05:13:32;100232.59;;;4.08;100.00
32083;BME280;18597;48.328;7.932;2023-04-03T05:15:58;100234.41;;;4.06;100.00
32083;BME280;18597;48.328;7.932;2023-04-03T05:18:25;100238.25;;;4.01;100.00
32083;BME280;18597;48.328;7.932;2023-04-03T05:20:51;100236.28;;;4.04;100.00
32083;BME280;18597;48.328;7.932;2023-04-03T05:23:17;100241.91;;;4.15;100.00
32083;BME280;18597;48.328;7.932;2023-04-03T05:25:43;100245.25;;;4.19;100.00
32083;BME280;18597;48.328;7.932;2023-04-03T05:28:11;100248.78;;;4.37;100.00
32083;BME280;18597;48.328;7.932;2023-04-03T05:30:37;100236.78;;;4.30;100.00
32083;BME280;18597;48.328;7.932;2023-04-03T05:33:03;100240.22;;;4.32;100.00
32083;BME280;18597;48.328;7.932;2023-04-03T05:35:29;100239.19;;;4.17;100.00
32083;BME280;18597;48.328;7.932;2023-04-03T05:37:55;100247.66;;;4.06;100.00
32083;BME280;18597;48.328;7.932;2023-04-03T05:40:21;100247.25;;;4.14;100.00
32083;BME280;18597;48.328;7.932;2023-04-03T05:42:47;100249.03;;;4.32;100.00
32083;BME280;18597;48.328;7.932;2023-04-03T05:45:13;100246.94;;;4.39;100.00
32083;BME280;18597;48.328;7.932;2023-04-03T05:47:39;100259.53;;;4.51;100.00
32083;BME280;18597;48.328;7.932;2023-04-03T05:50:05;100265.53;;;4.55;100.00
32083;BME280;18597;48.328;7.932;2023-04-03T05:52:37;100263.66;;;4.57;100.00
32083;BME280;18597;48.328;7.932;2023-04-03T05:55:04;100256.25;;;4.81;100.00
32083;BME280;18597;48.328;7.932;2023-04-03T05:57:30;100260.72;;;4.96;100.00
32083;BME280;18597;48.328;7.932;2023-04-03T05:59:55;100265.53;;;5.05;100.00
32083;BME280;18597;48.328;7.932;2023-04-03T06:02:24;100270.03;;;5.20;100.00
32083;BME280;18597;48.328;7.932;2023-04-03T06:04:51;100264.38;;;5.11;100.00
32083;BME280;18597;48.328;7.932;2023-04-03T06:07:20;100276.72;;;5.27;98.67
32083;BME280;18597;48.328;7.932;2023-04-03T06:09:49;100268.22;;;5.54;98.03
32083;BME280;18597;48.328;7.932;2023-04-03T06:12:17;100268.66;;;5.46;91.43
32083;BME280;18597;48.328;7.932;2023-04-03T06:14:43;100279.63;;;5.23;87.59
32083;BME280;18597;48.328;7.932;2023-04-03T06:17:09;100275.31;;;5.38;88.90
32083;BME280;18597;48.328;7.932;2023-04-03T06:19:36;100273.53;;;5.54;89.86
32083;BME280;18597;48.328;7.932;2023-04-03T06:22:02;100280.03;;;5.80;83.94
32083;BME280;18597;48.328;7.932;2023-04-03T06:24:30;100278.31;;;5.79;82.62
32083;BME280;18597;48.328;7.932;2023-04-03T06:26:57;100289.25;;;5.57;84.75
32083;BME280;18597;48.328;7.932;2023-04-03T06:29:24;100290.53;;;5.50;83.41
32083;BME280;18597;48.328;7.932;2023-04-03T06:31:50;100295.38;;;5.75;83.25
32083;BME280;18597;48.328;7.932;2023-04-03T06:34:17;100298.19;;;6.03;77.60
32083;BME280;18597;48.328;7.932;2023-04-03T06:36:44;100289.53;;;9.87;59.77
32083;BME280;18597;48.328;7.932;2023-04-03T06:39:16;100287.53;;;13.99;45.70
32083;BME280;18597;48.328;7.932;2023-04-03T06:41:43;100281.28;;;17.25;38.14
32083;BME280;18597;48.328;7.932;2023-04-03T06:44:10;100280.81;;;17.97;34.54
32083;BME280;18597;48.328;7.932;2023-04-03T06:46:39;100269.03;;;19.86;32.74
32083;BME280;18597;48.328;7.932;2023-04-03T06:49:05;100274.34;;;19.71;30.53
32083;BME280;18597;48.328;7.932;2023-04-03T06:51:34;100274.06;;;17.67;32.75
32083;BME280;18597;48.328;7.932;2023-04-03T06:54:02;100275.50;;;18.97;32.42
32083;BME280;18597;48.328;7.932;2023-04-03T06:56:29;100284.25;;;17.22;33.12
32083;BME280;18597;48.328;7.932;2023-04-03T06:58:55;100284.72;;;16.73;35.22
32083;BME280;18597;48.328;7.932;2023-04-03T07:01:25;100285.66;;;16.82;33.40
32083;BME280;18597;48.328;7.932;2023-04-03T07:03:52;100292.91;;;14.08;37.18
32083;BME280;18597;48.328;7.932;2023-04-03T07:06:19;100294.25;;;15.11;36.12
32083;BME280;18597;48.328;7.932;2023-04-03T07:08:46;100299.22;;;15.15;36.93
32083;BME280;18597;48.328;7.932;2023-04-03T07:11:14;100302.28;;;16.59;33.49
32083;BME280;18597;48.328;7.932;2023-04-03T07:13:40;100297.41;;;16.00;35.12
32083;BME280;18597;48.328;7.932;2023-04-03T07:16:07;100301.44;;;17.38;34.07
32083;BME280;18597;48.328;7.932;2023-04-03T07:18:34;100311.44;;;14.61;35.12
32083;BME280;18597;48.328;7.932;2023-04-03T07:21:00;100313.13;;;15.01;35.63
32083;BME280;18597;48.328;7.932;2023-04-03T07:23:26;100305.19;;;14.01;36.17
32083;BME280;18597;48.328;7.932;2023-04-03T07:25:52;100319.81;;;13.47;37.18
32083;BME280;18597;48.328;7.932;2023-04-03T07:28:20;100304.22;;;13.41;38.13
32083;BME280;18597;48.328;7.932;2023-04-03T07:30:52;100324.59;;;11.48;38.41
32083;BME280;18597;48.328;7.932;2023-04-03T07:33:20;100314.03;;;12.14;39.86
32083;BME280;18597;48.328;7.932;2023-04-03T07:35:46;100329.06;;;10.31;41.15
32083;BME280;18597;48.328;7.932;2023-04-03T07:38:13;100315.97;;;9.53;43.64
32083;BME280;18597;48.328;7.932;2023-04-03T07:40:39;100317.22;;;11.97;40.95
32083;BME280;18597;48.328;7.932;2023-04-03T07:43:06;100328.34;;;12.99;37.77
32083;BME280;18597;48.328;7.932;2023-04-03T07:45:34;100324.56;;;13.02;37.34
32083;BME280;18597;48.328;7.932;2023-04-03T07:48:01;100303.72;;;16.08;33.54
32083;BME280;18597;48.328;7.932;2023-04-03T07:50:27;100316.56;;;14.24;35.63
32083;BME280;18597;48.328;7.932;2023-04-03T07:52:53;100314.78;;;15.78;34.54
32083;BME280;18597;48.328;7.932;2023-04-03T07:55:21;100329.00;;;15.80;32.76
32083;BME280;18597;48.328;7.932;2023-04-03T07:57:47;100319.91;;;15.15;33.07
32083;BME280;18597;48.328;7.932;2023-04-03T08:00:14;100327.84;;;14.68;35.44
32083;BME280;18597;48.328;7.932;2023-04-03T08:02:40;100326.88;;;16.92;32.41
32083;BME280;18597;48.328;7.932;2023-04-03T08:05:06;100346.13;;;15.13;32.37
32083;BME280;18597;48.328;7.932;2023-04-03T08:07:32;100323.78;;;14.24;33.39
32083;BME280;18597;48.328;7.932;2023-04-03T08:09:58;100335.63;;;15.10;33.75
32083;BME280;18597;48.328;7.932;2023-04-03T08:12:24;100327.72;;;12.43;37.11
32083;BME280;18597;48.328;7.932;2023-04-03T08:14:50;100347.84;;;14.35;32.89
32083;BME280;18597;48.328;7.932;2023-04-03T08:17:16;100324.56;;;12.38;35.94
32083;BME280;18597;48.328;7.932;2023-04-03T08:19:42;100325.31;;;11.39;39.04
32083;BME280;18597;48.328;7.932;2023-04-03T08:22:07;100348.22;;;10.49;41.88
32083;BME280;18597;48.328;7.932;2023-04-03T08:24:34;100341.06;;;10.13;41.70
32083;BME280;18597;48.328;7.932;2023-04-03T08:27:00;100333.66;;;10.16;43.79
32083;BME280;18597;48.328;7.932;2023-04-03T08:29:27;100343.06;;;9.34;43.16
32083;BME280;18597;48.328;7.932;2023-04-03T08:31:52;100348.91;;;9.27;42.81
32083;BME280;18597;48.328;7.932;2023-04-03T08:34:20;100340.91;;;8.06;45.95
32083;BME280;18597;48.328;7.932;2023-04-03T08:36:46;100349.22;;;7.73;47.06
32083;BME280;18597;48.328;7.932;2023-04-03T08:39:12;100338.97;;;7.95;47.76
32083;BME280;18597;48.328;7.932;2023-04-03T08:41:41;100353.00;;;8.12;49.03
32083;BME280;18597;48.328;7.932;2023-04-03T08:44:50;100348.09;;;8.32;47.19
32083;BME280;18597;48.328;7.932;2023-04-03T08:47:28;100369.19;;;7.94;47.63
32083;BME280;18597;48.328;7.932;2023-04-03T08:50:11;100355.03;;;7.79;48.37
32083;BME280;18597;48.328;7.932;2023-04-03T08:52:44;100366.06;;;7.15;48.06
32083;BME280;18597;48.328;7.932;2023-04-03T08:55:34;100385.22;;;6.76;48.59
32083;BME280;18597;48.328;7.932;2023-04-03T08:58:09;100356.09;;;7.04;51.22
32083;BME280;18597;48.328;7.932;2023-04-03T09:03:23;100369.84;;;7.69;49.46
32083;BME280;18597;48.328;7.932;2023-04-03T09:05:58;100377.91;;;7.68;49.48
32083;BME280;18597;48.328;7.932;2023-04-03T09:12:03;100378.66;;;7.84;46.60
32083;BME280;18597;48.328;7.932;2023-04-03T09:15:09;100378.00;;;7.52;48.07
32083;BME280;18597;48.328;7.932;2023-04-03T09:18:05;100367.63;;;8.19;48.60
32083;BME280;18597;48.328;7.932;2023-04-03T09:23:42;100369.09;;;7.67;47.25
32083;BME280;18597;48.328;7.932;2023-04-03T09:26:21;100375.59;;;7.47;47.22
32083;BME280;18597;48.328;7.932;2023-04-03T09:28:54;100370.13;;;7.65;49.47
32083;BME280;18597;48.328;7.932;2023-04-03T09:31:26;100376.97;;;7.83;46.46
32083;BME280;18597;48.328;7.932;2023-04-03T09:33:59;100377.16;;;7.51;47.82
32083;BME280;18597;48.328;7.932;2023-04-03T09:39:22;100378.91;;;8.90;45.66
32083;BME280;18597;48.328;7.932;2023-04-03T09:42:03;100369.59;;;9.10;45.25
32083;BME280;18597;48.328;7.932;2023-04-03T09:44:35;100373.69;;;8.89;45.18
32083;BME280;18597;48.328;7.932;2023-04-03T09:47:32;100377.69;;;9.09;43.96
32083;BME280;18597;48.328;7.932;2023-04-03T09:50:20;100357.47;;;9.32;44.16
32083;BME280;18597;48.328;7.932;2023-04-03T09:52:50;100367.72;;;9.76;43.68
32083;BME280;18597;48.328;7.932;2023-04-03T09:55:24;100360.38;;;10.29;41.30
32083;BME280;18597;48.328;7.932;2023-04-03T09:58:05;100367.09;;;10.22;40.64
32083;BME280;18597;48.328;7.932;2023-04-03T10:00:56;100359.09;;;10.82;41.99
32083;BME280;18597;48.328;7.932;2023-04-03T10:03:38;100368.81;;;10.10;40.84
32083;BME280;18597;48.328;7.932;2023-04-03T10:06:23;100364.22;;;10.12;43.21
32083;BME280;18597;48.328;7.932;2023-04-03T10:09:31;100361.28;;;10.65;42.82
32083;BME280;18597;48.328;7.932;2023-04-03T10:12:09;100363.81;;;10.55;41.03
32083;BME280;18597;48.328;7.932;2023-04-03T10:14:41;100362.59;;;11.18;41.68
32083;BME280;18597;48.328;7.932;2023-04-03T10:17:50;100351.28;;;10.79;40.37
32083;BME280;18597;48.328;7.932;2023-04-03T10:20:43;100347.94;;;10.89;41.93
32083;BME280;18597;48.328;7.932;2023-04-03T10:23:33;100341.63;;;11.47;40.77
32083;BME280;18597;48.328;7.932;2023-04-03T10:26:45;100347.34;;;11.43;39.89
32083;BME280;18597;48.328;7.932;2023-04-03T10:32:52;100334.84;;;11.08;40.18
32083;BME280;18597;48.328;7.932;2023-04-03T10:42:23;100342.13;;;10.47;40.53
32083;BME280;18597;48.328;7.932;2023-04-03T10:45:31;100333.50;;;10.67;40.92
32083;BME280;18597;48.328;7.932;2023-04-03T10:48:54;100332.78;;;9.66;42.71
32083;BME280;18597;48.328;7.932;2023-04-03T10:51:47;100323.63;;;9.83;40.95
32083;BME280;18597;48.328;7.932;2023-04-03T10:54:38;100328.38;;;10.40;40.02
32083;BME280;18597;48.328;7.932;2023-04-03T10:57:08;100326.63;;;10.87;41.68
32083;BME280;18597;48.328;7.932;2023-04-03T10:59:43;100313.53;;;11.53;40.68
32083;BME280;18597;48.328;7.932;2023-04-03T11:02:28;100318.19;;;11.96;38.10
32083;BME280;18597;48.328;7.932;2023-04-03T11:05:13;100318.41;;;11.48;39.16
32083;BME280;18597;48.328;7.932;2023-04-03T11:07:47;100310.38;;;11.36;39.81
32083;BME280;18597;48.328;7.932;2023-04-03T11:10:42;100311.03;;;11.96;38.26
32083;BME280;18597;48.328;7.932;2023-04-03T11:13:19;100311.75;;;12.09;38.36
32083;BME280;18597;48.328;7.932;2023-04-03T11:15:49;100305.28;;;12.12;36.63
32083;BME280;18597;48.328;7.932;2023-04-03T11:18:48;100302.09;;;12.07;37.24
32083;BME280;18597;48.328;7.932;2023-04-03T11:21:26;100300.16;;;12.09;37.46
32083;BME280;18597;48.328;7.932;2023-04-03T11:23:56;100293.84;;;11.65;37.35
32083;BME280;18597;48.328;7.932;2023-04-03T11:26:29;100294.09;;;11.84;38.53
32083;BME280;18597;48.328;7.932;2023-04-03T11:29:04;100284.28;;;12.60;38.70
32083;BME280;18597;48.328;7.932;2023-04-03T11:34:47;100297.13;;;11.46;39.24
32083;BME280;18597;48.328;7.932;2023-04-03T11:39:58;100291.16;;;11.54;39.11
32083;BME280;18597;48.328;7.932;2023-04-03T11:42:34;100280.53;;;10.96;40.89
32083;BME280;18597;48.328;7.932;2023-04-03T11:57:44;100288.00;;;10.56;40.79
32083;BME280;18597;48.328;7.932;2023-04-03T12:08:49;100272.13;;;10.90;41.18
32083;BME280;18597;48.328;7.932;2023-04-03T12:11:29;100287.31;;;10.17;40.62
32083;BME280;18597;48.328;7.932;2023-04-03T12:24:39;100276.88;;;10.62;40.20
32083;BME280;18597;48.328;7.932;2023-04-03T12:27:28;100275.94;;;11.21;39.19
32083;BME280;18597;48.328;7.932;2023-04-03T12:33:19;100271.88;;;10.57;40.86
32083;BME280;18597;48.328;7.932;2023-04-03T12:36:13;100271.41;;;10.99;40.28
32083;BME280;18597;48.328;7.932;2023-04-03T12:45:16;100274.72;;;10.67;40.76
32083;BME280;18597;48.328;7.932;2023-04-03T12:47:45;100279.16;;;11.02;40.26
32083;BME280;18597;48.328;7.932;2023-04-03T12:50:25;100262.47;;;10.87;38.56
32083;BME280;18597;48.328;7.932;2023-04-03T12:53:01;100269.91;;;10.24;40.93
32083;BME280;18597;48.328;7.932;2023-04-03T12:55:29;100267.13;;;10.26;40.50
32083;BME280;18597;48.328;7.932;2023-04-03T12:57:55;100260.38;;;10.68;39.96
32083;BME280;18597;48.328;7.932;2023-04-03T13:03:00;100263.16;;;11.13;39.44
32083;BME280;18597;48.328;7.932;2023-04-03T13:05:28;100267.06;;;10.39;40.56
32083;BME280;18597;48.328;7.932;2023-04-03T13:08:06;100271.53;;;10.62;40.82
32083;BME280;18597;48.328;7.932;2023-04-03T13:11:08;100271.59;;;10.73;40.59
32083;BME280;18597;48.328;7.932;2023-04-03T13:13:36;100276.75;;;10.64;39.91
32083;BME280;18597;48.328;7.932;2023-04-03T13:16:11;100272.31;;;10.87;41.85
32083;BME280;18597;48.328;7.932;2023-04-03T13:18:39;100259.56;;;10.79;39.63
32083;BME280;18597;48.328;7.932;2023-04-03T13:21:17;100262.69;;;10.38;40.46
32083;BME280;18597;48.328;7.932;2023-04-03T13:23:48;100257.00;;;10.77;39.56
32083;BME280;18597;48.328;7.932;2023-04-03T13:26:18;100262.59;;;10.86;39.36
32083;BME280;18597;48.328;7.932;2023-04-03T13:28:46;100256.28;;;10.87;38.75
32083;BME280;18597;48.328;7.932;2023-04-03T13:31:36;100255.66;;;10.37;38.85
32083;BME280;18597;48.328;7.932;2023-04-03T13:34:13;100251.06;;;10.74;39.53
32083;BME280;18597;48.328;7.932;2023-04-03T13:37:00;100248.44;;;11.07;39.38
32083;BME280;18597;48.328;7.932;2023-04-03T13:39:31;100246.00;;;11.16;38.42
32083;BME280;18597;48.328;7.932;2023-04-03T13:42:01;100246.75;;;11.06;39.02
32083;BME280;18597;48.328;7.932;2023-04-03T13:44:34;100248.28;;;10.87;39.26
32083;BME280;18597;48.328;7.932;2023-04-03T13:47:19;100246.44;;;10.41;40.70
32083;BME280;18597;48.328;7.932;2023-04-03T13:50:18;100245.00;;;10.48;41.53
32083;BME280;18597;48.328;7.932;2023-04-03T13:52:55;100243.06;;;10.85;40.77
32083;BME280;18597;48.328;7.932;2023-04-03T13:55:28;100260.19;;;10.82;41.35
32083;BME280;18597;48.328;7.932;2023-04-03T14:01:05;100239.63;;;10.37;40.33
32083;BME280;18597;48.328;7.932;2023-04-03T14:03:43;100230.50;;;10.15;41.08
32083;BME280;18597;48.328;7.932;2023-04-03T14:06:15;100230.13;;;10.33;41.99
32083;BME280;18597;48.328;7.932;2023-04-03T14:08:44;100239.09;;;10.08;40.46
32083;BME280;18597;48.328;7.932;2023-04-03T14:11:18;100229.69;;;10.02;41.74
32083;BME280;18597;48.328;7.932;2023-04-03T14:13:45;100241.59;;;9.36;42.98
32083;BME280;18597;48.328;7.932;2023-04-03T14:16:15;100232.44;;;9.27;43.47
32083;BME280;18597;48.328;7.932;2023-04-03T14:18:44;100242.16;;;9.28;43.13
32083;BME280;18597;48.328;7.932;2023-04-03T14:21:14;100233.41;;;9.39;43.55
32083;BME280;18597;48.328;7.932;2023-04-03T14:23:40;100238.97;;;9.72;42.98
32083;BME280;18597;48.328;7.932;2023-04-03T14:26:18;100234.22;;;9.89;41.67
32083;BME280;18597;48.328;7.932;2023-04-03T14:28:49;100246.53;;;9.79;42.80
32083;BME280;18597;48.328;7.932;2023-04-03T14:31:17;100239.56;;;10.25;44.55
32083;BME280;18597;48.328;7.932;2023-04-03T14:33:44;100235.13;;;10.13;42.73